createdAt,value
2023-09-04T00:00:16.232Z,18.86
2023-09-04T00:02:49.942Z,18.85
2023-09-04T00:05:21.021Z,18.85
2023-09-04T00:07:51.664Z,18.84
2023-09-04T00:10:22.827Z,18.84
2023-09-04T00:12:53.352Z,18.81
2023-09-04T00:15:23.896Z,18.78
2023-09-04T00:17:54.418Z,18.75
2023-09-04T00:20:25.722Z,18.72
2023-09-04T00:22:56.926Z,18.71
2023-09-04T00:25:27.454Z,18.69
2023-09-04T00:27:59.251Z,18.69
2023-09-04T00:30:29.883Z,18.69
2023-09-04T00:33:00.647Z,18.68
2023-09-04T00:35:31.151Z,18.69
2023-09-04T00:38:01.649Z,18.70
2023-09-04T00:45:16.955Z,18.69
2023-09-04T00:47:48.469Z,18.66
2023-09-04T00:50:22.263Z,18.65
2023-09-04T00:52:55.099Z,18.65
2023-09-04T00:55:26.289Z,18.65
2023-09-04T00:57:57.815Z,18.64
2023-09-04T01:00:29.682Z,18.64
2023-09-04T01:03:04.317Z,18.63
2023-09-04T01:05:35.097Z,18.62
2023-09-04T01:08:06.790Z,18.62
2023-09-04T01:10:41.084Z,18.64
2023-09-04T01:13:19.062Z,18.62
2023-09-04T01:15:49.972Z,18.64
2023-09-04T01:18:21.857Z,18.64
2023-09-04T01:21:04.375Z,18.63
2023-09-04T01:23:36.410Z,18.64
2023-09-04T01:26:14.108Z,18.63
2023-09-04T01:28:56.879Z,18.62
2023-09-04T01:31:31.837Z,18.60
2023-09-04T01:34:09.513Z,18.58
2023-09-04T01:36:41.289Z,18.56
2023-09-04T01:39:12.774Z,18.53
2023-09-04T01:41:43.283Z,18.50
2023-09-04T01:44:14.432Z,18.48
2023-09-04T01:46:45.694Z,18.47
2023-09-04T01:49:16.299Z,18.44
2023-09-04T01:51:46.816Z,18.43
2023-09-04T01:54:17.510Z,18.43
2023-09-04T01:56:47.942Z,18.42
2023-09-04T01:59:18.506Z,18.43
2023-09-04T02:01:49.063Z,18.43
2023-09-04T02:04:19.649Z,18.42
2023-09-04T02:06:50.277Z,18.40
2023-09-04T02:09:20.722Z,18.40
2023-09-04T02:11:51.176Z,18.38
2023-09-04T02:14:22.105Z,18.36
2023-09-04T02:16:52.917Z,18.35
2023-09-04T02:19:23.548Z,18.33
2023-09-04T02:21:54.007Z,18.32
2023-09-04T02:24:24.487Z,18.31
2023-09-04T02:26:55.182Z,18.31
2023-09-04T02:29:25.997Z,18.30
2023-09-04T02:31:58.417Z,18.28
2023-09-04T02:34:28.962Z,18.26
2023-09-04T02:37:00.436Z,18.25
2023-09-04T02:39:31.710Z,18.23
2023-09-04T02:42:02.172Z,18.22
2023-09-04T02:44:32.937Z,18.20
2023-09-04T02:47:03.472Z,18.18
2023-09-04T02:49:34.196Z,18.16
2023-09-04T02:52:04.853Z,18.15
2023-09-04T02:54:35.314Z,18.14
2023-09-04T02:57:06.138Z,18.15
2023-09-04T02:59:38.095Z,18.14
2023-09-04T03:02:08.721Z,18.13
2023-09-04T03:04:39.307Z,18.12
2023-09-04T03:07:10.508Z,18.10
2023-09-04T03:09:41.040Z,18.10
2023-09-04T03:12:11.762Z,18.09
2023-09-04T03:14:42.447Z,18.08
2023-09-04T03:17:12.937Z,18.07
2023-09-04T03:19:43.432Z,18.05
2023-09-04T03:22:13.942Z,18.02
2023-09-04T03:24:44.504Z,17.99
2023-09-04T03:27:15.098Z,17.97
2023-09-04T03:29:46.502Z,17.95
2023-09-04T03:32:17.328Z,17.94
2023-09-04T03:34:48.059Z,17.93
2023-09-04T03:37:18.720Z,17.93
2023-09-04T03:39:49.212Z,17.93
2023-09-04T03:42:20.968Z,17.91
2023-09-04T03:44:52.081Z,17.90
2023-09-04T03:47:22.523Z,17.90
2023-09-04T03:49:53.068Z,17.89
2023-09-04T03:52:23.584Z,17.89
2023-09-04T03:54:54.337Z,17.89
2023-09-04T03:57:24.931Z,17.89
2023-09-04T03:59:58.187Z,17.88
2023-09-04T04:02:28.853Z,17.86
2023-09-04T04:04:59.453Z,17.87
2023-09-04T04:07:29.972Z,17.86
2023-09-04T04:10:00.766Z,17.87
2023-09-04T04:12:32.465Z,17.88
2023-09-04T04:15:07.205Z,17.89
2023-09-04T04:17:38.823Z,17.90
2023-09-04T04:20:12.013Z,17.92
2023-09-04T04:22:43.282Z,17.92
2023-09-04T04:25:13.855Z,17.91
2023-09-04T04:27:45.538Z,17.86
2023-09-04T04:30:14.963Z,17.79
2023-09-04T04:32:45.468Z,17.72
2023-09-04T04:35:16.219Z,17.67
2023-09-04T04:37:46.698Z,17.61
2023-09-04T04:40:23.088Z,17.56
2023-09-04T04:42:53.938Z,17.52
2023-09-04T04:45:24.450Z,17.49
2023-09-04T04:47:55.106Z,17.46
2023-09-04T04:50:27.216Z,17.43
2023-09-04T04:52:57.718Z,17.43
2023-09-04T04:55:28.860Z,17.43
2023-09-04T04:57:59.390Z,17.43
2023-09-04T05:00:29.924Z,17.46
2023-09-04T05:03:00.414Z,17.48
2023-09-04T05:05:31.170Z,17.50
2023-09-04T05:08:02.117Z,17.52
2023-09-04T05:10:32.641Z,17.54
2023-09-04T05:13:03.318Z,17.55
2023-09-04T05:15:33.870Z,17.55
2023-09-04T05:18:05.265Z,17.57
2023-09-04T05:20:40.045Z,17.59
2023-09-04T05:23:10.625Z,17.61
2023-09-04T05:25:48.775Z,17.61
2023-09-04T05:28:19.412Z,17.62
2023-09-04T05:30:50.115Z,17.61
2023-09-04T05:33:20.705Z,17.60
2023-09-04T05:35:58.916Z,17.59
2023-09-04T05:38:29.406Z,17.59
2023-09-04T05:41:00.299Z,17.57
2023-09-04T05:43:30.861Z,17.55
2023-09-04T05:46:01.720Z,17.56
2023-09-04T05:48:32.768Z,17.56
2023-09-04T05:51:04.916Z,17.58
2023-09-04T05:53:35.373Z,17.58
2023-09-04T05:56:12.126Z,17.60
2023-09-04T05:58:48.690Z,17.61
2023-09-04T06:01:20.671Z,17.62
2023-09-04T06:03:51.226Z,17.64
2023-09-04T06:06:22.036Z,17.68
2023-09-04T06:08:52.501Z,17.72
2023-09-04T06:11:22.977Z,17.74
2023-09-04T06:13:53.443Z,17.78
2023-09-04T06:16:23.942Z,17.82
2023-09-04T06:18:54.455Z,17.86
2023-09-04T06:21:25.024Z,17.89
2023-09-04T06:23:55.462Z,17.92
2023-09-04T06:26:25.947Z,17.93
2023-09-04T06:28:56.438Z,17.95
2023-09-04T06:31:26.987Z,17.97
2023-09-04T06:33:57.938Z,17.99
2023-09-04T06:36:28.896Z,18.03
2023-09-04T06:38:59.417Z,18.06
2023-09-04T06:41:29.963Z,18.09
2023-09-04T06:44:00.698Z,18.13
2023-09-04T06:46:31.286Z,18.17
2023-09-04T06:49:01.802Z,18.20
2023-09-04T06:51:33.122Z,18.21
2023-09-04T06:54:04.971Z,18.22
2023-09-04T06:56:35.477Z,18.22
2023-09-04T06:59:06.713Z,18.23
2023-09-04T07:01:37.232Z,18.23
2023-09-04T07:04:08.224Z,18.27
2023-09-04T07:06:39.271Z,18.28
2023-09-04T07:09:09.816Z,18.31
2023-09-04T07:11:40.327Z,18.33
2023-09-04T07:14:10.765Z,18.33
2023-09-04T07:16:47.272Z,18.32
2023-09-04T07:19:21.186Z,18.29
2023-09-04T07:21:51.693Z,18.28
2023-09-04T07:24:22.215Z,18.27
2023-09-04T07:26:52.735Z,18.27
2023-09-04T07:29:23.644Z,18.27
2023-09-04T07:31:55.282Z,18.31
2023-09-04T07:34:26.003Z,18.33
2023-09-04T07:36:56.588Z,18.35
2023-09-04T07:39:27.106Z,18.36
2023-09-04T07:41:59.517Z,18.35
2023-09-04T07:44:30.040Z,18.35
2023-09-04T07:47:00.495Z,18.34
2023-09-04T07:49:31.067Z,18.33
2023-09-04T07:52:01.655Z,18.35
2023-09-04T07:54:32.209Z,18.37
2023-09-04T07:57:05.651Z,18.40
2023-09-04T07:59:36.292Z,18.43
2023-09-04T08:02:07.134Z,18.46
2023-09-04T08:04:37.659Z,18.50
2023-09-04T08:07:08.363Z,18.54
2023-09-04T08:09:38.867Z,18.56
2023-09-04T08:12:10.093Z,18.56
2023-09-04T08:14:40.564Z,18.57
2023-09-04T08:17:11.060Z,18.57
2023-09-04T08:19:41.579Z,18.59
2023-09-04T08:22:12.086Z,18.63
2023-09-04T08:24:42.593Z,18.66
2023-09-04T08:27:13.108Z,18.69
2023-09-04T08:29:43.592Z,18.72
2023-09-04T08:32:14.156Z,18.74
2023-09-04T08:34:44.683Z,18.77
2023-09-04T08:37:15.249Z,18.78
2023-09-04T08:39:45.733Z,18.81
2023-09-04T08:42:16.401Z,18.86
2023-09-04T08:44:49.307Z,18.89
2023-09-04T08:47:23.304Z,18.92
2023-09-04T08:49:54.806Z,18.95
2023-09-04T08:52:25.771Z,18.97
2023-09-04T08:54:57.045Z,19.00
2023-09-04T08:57:29.302Z,19.02
2023-09-04T08:59:59.786Z,19.05
2023-09-04T09:02:31.168Z,19.05
2023-09-04T09:05:02.654Z,19.06
2023-09-04T09:07:33.894Z,19.07
2023-09-04T09:10:08.720Z,19.10
2023-09-04T09:12:39.225Z,19.14
2023-09-04T09:15:11.347Z,19.18
2023-09-04T09:17:54.485Z,19.22
2023-09-04T09:20:35.174Z,19.27
2023-09-04T09:23:07.137Z,19.32
2023-09-04T09:25:39.384Z,19.37
2023-09-04T09:28:11.009Z,19.41
2023-09-04T09:30:42.800Z,19.45
2023-09-04T09:33:14.508Z,19.49
2023-09-04T09:35:44.107Z,19.52
2023-09-04T09:38:14.588Z,19.52
2023-09-04T09:40:47.585Z,19.53
2023-09-04T09:43:19.286Z,19.56
2023-09-04T09:45:51.436Z,19.57
2023-09-04T09:48:25.612Z,19.59
2023-09-04T09:50:56.798Z,19.60
2023-09-04T09:53:27.252Z,19.62
2023-09-04T09:55:58.372Z,19.64
2023-09-04T09:58:29.134Z,19.65
2023-09-04T10:00:59.734Z,19.66
2023-09-04T10:03:30.425Z,19.68
2023-09-04T10:06:05.405Z,19.70
2023-09-04T10:08:39.770Z,19.74
2023-09-04T10:11:13.064Z,19.77
2023-09-04T10:14:04.939Z,19.78
2023-09-04T10:16:42.978Z,19.80
2023-09-04T10:19:19.398Z,19.83
2023-09-04T10:22:00.342Z,19.86
2023-09-04T10:24:43.031Z,19.89
2023-09-04T10:27:16.032Z,19.93
2023-09-04T10:29:56.747Z,19.97
2023-09-04T10:32:29.043Z,20.01
2023-09-04T10:35:00.150Z,20.06
2023-09-04T10:37:33.214Z,20.10
2023-09-04T10:40:04.645Z,20.15
2023-09-04T10:42:36.174Z,20.20
2023-09-04T10:45:16.729Z,20.25
2023-09-04T10:47:51.866Z,20.31
2023-09-04T10:50:35.574Z,20.34
2023-09-04T10:53:08.153Z,20.42
2023-09-04T10:55:40.195Z,20.48
2023-09-04T10:58:12.256Z,20.53
2023-09-04T11:00:44.858Z,20.56
2023-09-04T11:03:23.888Z,20.58
2023-09-04T11:06:21.414Z,20.61
2023-09-04T11:08:55.308Z,20.65
2023-09-04T11:11:28.638Z,20.69
2023-09-04T11:14:04.148Z,20.75
2023-09-04T11:16:40.479Z,20.82
2023-09-04T11:19:17.649Z,20.88
2023-09-04T11:21:48.847Z,20.94
2023-09-04T11:24:21.673Z,20.99
2023-09-04T11:26:52.150Z,21.05
2023-09-04T11:29:22.724Z,21.08
2023-09-04T11:33:21.831Z,21.09
2023-09-04T11:34:47.036Z,21.10
2023-09-04T11:37:17.974Z,21.11
2023-09-04T11:40:02.931Z,21.14
2023-09-04T11:42:36.748Z,21.15
2023-09-04T11:45:09.204Z,21.17
2023-09-04T11:47:41.267Z,21.20
2023-09-04T11:50:18.428Z,21.23
2023-09-04T11:52:49.853Z,21.29
2023-09-04T11:55:23.397Z,21.36
2023-09-04T11:57:53.959Z,21.43
2023-09-04T12:00:24.825Z,21.49
2023-09-04T12:02:55.451Z,21.51
2023-09-04T12:05:27.064Z,21.50
2023-09-04T12:07:57.885Z,21.52
2023-09-04T12:10:28.726Z,21.55
2023-09-04T12:12:59.699Z,21.59
2023-09-04T12:15:31.488Z,21.60
2023-09-04T12:18:03.496Z,21.60
2023-09-04T12:20:37.194Z,21.62
2023-09-04T12:23:08.244Z,21.65
2023-09-04T12:25:41.009Z,21.71
2023-09-04T12:28:12.930Z,21.76
2023-09-04T12:30:45.544Z,21.82
2023-09-04T12:33:18.158Z,21.88
2023-09-04T12:35:57.902Z,21.95
2023-09-04T12:38:28.642Z,22.00
2023-09-04T12:41:00.416Z,22.07
2023-09-04T12:43:31.227Z,22.13
2023-09-04T12:46:02.496Z,22.19
2023-09-04T12:48:33.572Z,22.22
2023-09-04T12:51:04.240Z,22.22
2023-09-04T12:53:35.040Z,22.19
2023-09-04T12:56:05.735Z,22.17
2023-09-04T12:58:37.554Z,22.14
2023-09-04T13:01:08.197Z,22.14
2023-09-04T13:03:38.731Z,22.16
2023-09-04T13:06:09.398Z,22.17
2023-09-04T13:08:39.879Z,22.19
2023-09-04T13:11:10.377Z,22.19
2023-09-04T13:13:42.762Z,22.20
2023-09-04T13:16:13.336Z,22.19
2023-09-04T13:18:43.822Z,22.18
2023-09-04T13:21:14.468Z,22.16
2023-09-04T13:23:45.297Z,22.16
2023-09-04T13:26:15.787Z,22.17
2023-09-04T13:28:46.649Z,22.19
2023-09-04T13:31:20.075Z,22.19
2023-09-04T13:33:50.768Z,22.18
2023-09-04T13:36:21.230Z,22.18
2023-09-04T13:38:51.699Z,22.17
2023-09-04T13:41:22.153Z,22.16
2023-09-04T13:43:56.871Z,22.14
2023-09-04T13:46:27.444Z,22.12
2023-09-04T13:48:58.119Z,22.11
2023-09-04T13:51:28.554Z,22.10
2023-09-04T13:53:59.047Z,22.10
2023-09-04T13:56:29.563Z,22.14
2023-09-04T13:59:00.027Z,22.19
2023-09-04T14:01:30.536Z,22.26
2023-09-04T14:04:01.158Z,22.34
2023-09-04T14:06:31.700Z,22.41
2023-09-04T14:09:02.200Z,22.45
2023-09-04T14:11:32.744Z,22.46
2023-09-04T14:14:03.355Z,22.46
2023-09-04T14:16:33.913Z,22.45
2023-09-04T14:19:04.943Z,22.45
2023-09-04T14:21:35.915Z,22.44
2023-09-04T14:24:07.347Z,22.47
2023-09-04T14:26:37.845Z,22.52
2023-09-04T14:29:08.345Z,22.58
2023-09-04T14:31:38.857Z,22.62
2023-09-04T14:38:23.336Z,22.70
2023-09-04T14:40:55.671Z,22.73
2023-09-04T14:43:26.409Z,22.77
2023-09-04T14:46:09.261Z,22.77
2023-09-04T14:48:40.862Z,22.79
2023-09-04T14:51:11.321Z,22.79
2023-09-04T14:53:42.334Z,22.78
2023-09-04T14:56:12.817Z,22.75
2023-09-04T14:58:43.300Z,22.74
2023-09-04T15:01:18.006Z,22.71
2023-09-04T15:03:50.031Z,22.67
2023-09-04T15:06:20.868Z,22.63
2023-09-04T15:08:51.441Z,22.61
2023-09-04T15:11:21.989Z,22.60
2023-09-04T15:13:52.450Z,22.60
2023-09-04T15:16:23.352Z,22.59
2023-09-04T15:18:53.937Z,22.57
2023-09-04T15:21:24.432Z,22.54
2023-09-04T15:23:54.991Z,22.53
2023-09-04T15:26:25.787Z,22.52
2023-09-04T15:28:56.295Z,22.51
2023-09-04T15:31:29.445Z,22.51
2023-09-04T15:33:59.898Z,22.51
2023-09-04T15:36:30.425Z,22.51
2023-09-04T15:39:00.919Z,22.50
2023-09-04T15:41:31.565Z,22.50
2023-09-04T15:44:02.168Z,22.50
2023-09-04T15:46:33.078Z,22.49
2023-09-04T15:49:04.127Z,22.49
2023-09-04T15:51:34.640Z,22.48
2023-09-04T15:54:05.327Z,22.48
2023-09-04T15:56:35.826Z,22.48
2023-09-04T15:59:06.360Z,22.48
2023-09-04T16:01:36.962Z,22.49
2023-09-04T16:04:08.887Z,22.50
2023-09-04T16:06:39.362Z,22.50
2023-09-04T16:09:09.937Z,22.50
2023-09-04T16:11:40.445Z,22.50
2023-09-04T16:14:10.907Z,22.50
2023-09-04T16:16:41.984Z,22.48
2023-09-04T16:19:13.919Z,22.46
2023-09-04T16:21:44.455Z,22.44
2023-09-04T16:24:15.085Z,22.43
2023-09-04T16:26:45.551Z,22.41
2023-09-04T16:29:17.149Z,22.39
2023-09-04T16:31:46.104Z,22.38
2023-09-04T16:34:17.004Z,22.35
2023-09-04T16:36:47.501Z,22.35
2023-09-04T16:39:18.015Z,22.33
2023-09-04T16:41:48.695Z,22.32
2023-09-04T16:44:19.206Z,22.30
2023-09-04T16:46:50.764Z,22.30
2023-09-04T16:49:21.624Z,22.29
2023-09-04T16:51:56.955Z,22.27
2023-09-04T16:54:28.671Z,22.26
2023-09-04T16:56:59.712Z,22.25
2023-09-04T16:59:30.265Z,22.25
2023-09-04T17:02:00.775Z,22.23
2023-09-04T17:04:31.244Z,22.22
2023-09-04T17:07:01.756Z,22.21
2023-09-04T17:09:32.250Z,22.20
2023-09-04T17:12:02.819Z,22.19
2023-09-04T17:14:33.304Z,22.17
2023-09-04T17:17:03.781Z,22.15
2023-09-04T17:19:34.442Z,22.14
2023-09-04T17:22:05.129Z,22.13
2023-09-04T17:24:35.645Z,22.11
2023-09-04T17:27:08.105Z,22.10
2023-09-04T17:29:38.660Z,22.09
2023-09-04T17:32:09.475Z,22.08
2023-09-04T17:34:41.536Z,22.07
2023-09-04T17:37:12.089Z,22.05
2023-09-04T17:39:42.690Z,22.03
2023-09-04T17:42:15.129Z,22.02
2023-09-04T17:44:45.795Z,22.00
2023-09-04T17:47:16.431Z,21.98
2023-09-04T17:49:46.913Z,21.96
2023-09-04T17:52:17.378Z,21.94
2023-09-04T17:54:47.851Z,21.92
2023-09-04T17:57:18.386Z,21.91
2023-09-04T17:59:49.249Z,21.89
2023-09-04T18:02:20.115Z,21.87
2023-09-04T18:04:50.615Z,21.86
2023-09-04T18:07:21.140Z,21.84
2023-09-04T18:09:51.644Z,21.84
2023-09-04T18:12:22.136Z,21.82
2023-09-04T18:14:52.738Z,21.82
2023-09-04T18:17:23.285Z,21.80
2023-09-04T18:19:53.784Z,21.79
2023-09-04T18:22:24.637Z,21.78
2023-09-04T18:24:55.395Z,21.77
2023-09-04T18:27:26.044Z,21.76
2023-09-04T18:29:56.614Z,21.75
2023-09-04T18:32:27.147Z,21.73
2023-09-04T18:34:57.792Z,21.73
2023-09-04T18:37:28.317Z,21.71
2023-09-04T18:39:58.806Z,21.71
2023-09-04T18:42:29.347Z,21.69
2023-09-04T18:45:00.633Z,21.68
2023-09-04T18:47:56.461Z,21.67
2023-09-04T18:50:26.973Z,21.68
2023-09-04T18:52:58.455Z,21.67
2023-09-04T18:55:28.997Z,21.69
2023-09-04T18:57:59.530Z,21.69
2023-09-04T19:00:30.139Z,21.68
2023-09-04T19:03:00.729Z,21.67
2023-09-04T19:05:31.519Z,21.67
2023-09-04T19:08:02.014Z,21.66
2023-09-04T19:10:32.561Z,21.66
2023-09-04T19:13:03.505Z,21.65
2023-09-04T19:15:34.234Z,21.65
2023-09-04T19:18:04.961Z,21.64
2023-09-04T19:20:35.896Z,21.63
2023-09-04T19:23:06.737Z,21.62
2023-09-04T19:25:37.284Z,21.60
2023-09-04T19:28:08.616Z,21.60
2023-09-04T19:30:39.227Z,21.59
2023-09-04T19:33:09.724Z,21.58
2023-09-04T19:35:40.246Z,21.58
2023-09-04T19:38:10.709Z,21.57
2023-09-04T19:40:41.304Z,21.56
2023-09-04T19:43:11.838Z,21.55
2023-09-04T19:45:42.357Z,21.55
2023-09-04T19:48:12.828Z,21.54
2023-09-04T19:50:43.329Z,21.54
2023-09-04T19:53:13.826Z,21.54
2023-09-04T19:55:44.279Z,21.53
2023-09-04T19:58:14.788Z,21.52
2023-09-04T20:00:45.292Z,21.51
2023-09-04T20:03:15.939Z,21.50
2023-09-04T20:05:46.467Z,21.50
2023-09-04T20:08:16.984Z,21.49
2023-09-04T20:10:47.503Z,21.49
2023-09-04T20:13:18.098Z,21.48
2023-09-04T20:15:48.641Z,21.48
2023-09-04T20:18:19.242Z,21.48
2023-09-04T20:20:49.740Z,21.47
2023-09-04T20:23:20.273Z,21.46
2023-09-04T20:25:50.725Z,21.45
2023-09-04T20:28:21.179Z,21.45
2023-09-04T20:30:54.850Z,21.44
2023-09-04T20:33:26.800Z,21.43
2023-09-04T20:35:57.514Z,21.41
2023-09-04T20:38:28.152Z,21.40
2023-09-04T20:40:58.725Z,21.39
2023-09-04T20:43:29.231Z,21.38
2023-09-04T20:45:59.756Z,21.37
2023-09-04T20:48:30.857Z,21.36
2023-09-04T20:51:01.389Z,21.35
2023-09-04T20:53:31.977Z,21.34
2023-09-04T20:56:04.461Z,21.33
2023-09-04T20:58:35.041Z,21.32
2023-09-04T21:01:05.605Z,21.29
2023-09-04T21:03:36.058Z,21.29
2023-09-04T21:06:07.628Z,21.27
2023-09-04T21:08:37.141Z,21.26
2023-09-04T21:11:08.831Z,21.24
2023-09-04T21:13:57.032Z,21.24
2023-09-04T21:16:45.139Z,21.23
2023-09-04T21:19:33.372Z,21.23
2023-09-04T21:22:21.914Z,21.22
2023-09-04T21:25:09.902Z,21.19
2023-09-04T21:27:57.947Z,21.16
2023-09-04T21:30:46.009Z,21.13
2023-09-04T21:33:34.200Z,21.11
2023-09-04T21:36:22.692Z,21.09
2023-09-04T21:39:10.766Z,21.06
2023-09-04T21:41:59.231Z,21.04
2023-09-04T21:44:47.634Z,21.03
2023-09-04T21:47:35.689Z,21.00
2023-09-04T21:50:24.857Z,20.99
2023-09-04T21:53:13.525Z,20.96
2023-09-04T21:56:05.265Z,20.93
2023-09-04T21:58:53.813Z,20.91
2023-09-04T22:01:41.733Z,20.89
2023-09-04T22:04:29.758Z,20.87
2023-09-04T22:07:17.712Z,20.87
2023-09-04T22:10:06.169Z,20.86
2023-09-04T22:12:53.979Z,20.83
2023-09-04T22:15:42.175Z,20.81
2023-09-04T22:18:41.263Z,20.78
2023-09-04T22:21:29.272Z,20.76
2023-09-04T22:24:17.221Z,20.73
2023-09-04T22:27:05.814Z,20.70
2023-09-04T22:29:54.453Z,20.68
2023-09-04T22:32:42.898Z,20.66
2023-09-04T22:35:30.890Z,20.66
2023-09-04T22:38:19.082Z,20.65
2023-09-04T22:41:07.116Z,20.64
2023-09-04T22:43:54.990Z,20.63
2023-09-04T22:46:43.547Z,20.62
2023-09-04T22:49:32.015Z,20.62
2023-09-04T22:52:19.990Z,20.61
2023-09-04T22:55:08.410Z,20.59
2023-09-04T22:57:57.601Z,20.59
2023-09-04T23:00:46.204Z,20.59
2023-09-04T23:03:35.071Z,20.58
2023-09-04T23:06:23.276Z,20.57
2023-09-04T23:09:11.096Z,20.56
2023-09-04T23:11:59.294Z,20.55
2023-09-04T23:14:47.149Z,20.56
2023-09-04T23:17:35.721Z,20.56
2023-09-04T23:20:26.145Z,20.56
2023-09-04T23:22:56.869Z,20.56
2023-09-04T23:25:30.205Z,20.57
2023-09-04T23:28:05.361Z,20.57
2023-09-04T23:30:38.938Z,20.57
2023-09-04T23:33:20.549Z,20.57
2023-09-04T23:36:16.796Z,20.54
2023-09-04T23:39:09.430Z,20.51
2023-09-04T23:41:57.871Z,20.46
2023-09-04T23:44:45.865Z,20.44
2023-09-04T23:47:17.355Z,20.41
2023-09-04T23:49:47.827Z,20.38
2023-09-04T23:52:19.037Z,20.36
2023-09-04T23:54:50.152Z,20.33
2023-09-04T23:57:20.636Z,20.31
2023-09-04T23:59:51.082Z,20.29
